createdAt,value
2023-01-06T00:01:07.346Z,5.05
2023-01-06T00:03:34.228Z,5.50
2023-01-06T00:06:02.154Z,2.80
2023-01-06T00:08:29.165Z,5.85
2023-01-06T00:10:56.092Z,5.70
2023-01-06T00:13:23.315Z,7.68
2023-01-06T00:15:50.346Z,5.55
2023-01-06T00:18:17.255Z,11.18
2023-01-06T00:20:44.102Z,5.12
2023-01-06T00:23:10.953Z,5.28
2023-01-06T00:25:37.806Z,5.78
2023-01-06T00:28:04.723Z,8.07
2023-01-06T00:30:31.615Z,5.10
2023-01-06T00:32:58.476Z,3.55
2023-01-06T00:35:25.337Z,5.72
2023-01-06T00:37:52.170Z,8.93
2023-01-06T00:42:45.675Z,4.85
2023-01-06T00:45:12.640Z,3.92
2023-01-06T00:47:39.561Z,5.93
2023-01-06T00:50:06.991Z,5.50
2023-01-06T00:52:34.450Z,2.37
2023-01-06T00:55:01.304Z,9.50
2023-01-06T00:57:28.334Z,5.37
2023-01-06T00:59:55.201Z,3.15
2023-01-06T01:02:22.355Z,7.97
2023-01-06T01:04:49.413Z,8.32
2023-01-06T01:07:17.160Z,3.25
2023-01-06T01:09:44.016Z,4.53
2023-01-06T01:12:14.906Z,6.95
2023-01-06T01:14:47.513Z,5.05
2023-01-06T01:17:17.634Z,8.10
2023-01-06T01:19:44.469Z,5.15
2023-01-06T01:22:11.443Z,7.85
2023-01-06T01:24:38.735Z,12.07
2023-01-06T01:27:06.281Z,7.07
2023-01-06T01:29:33.362Z,5.32
2023-01-06T01:32:00.733Z,4.22
2023-01-06T01:34:27.781Z,4.25
2023-01-06T01:36:55.135Z,4.45
2023-01-06T01:39:24.584Z,8.23
2023-01-06T01:41:52.115Z,8.13
2023-01-06T01:44:54.525Z,5.85
2023-01-06T01:47:36.262Z,8.52
2023-01-06T01:50:15.114Z,4.65
2023-01-06T01:52:43.343Z,4.70
2023-01-06T01:55:11.239Z,4.82
2023-01-06T01:57:49.119Z,8.10
2023-01-06T02:00:16.282Z,8.38
2023-01-06T02:02:43.613Z,5.28
2023-01-06T02:05:13.124Z,6.90
2023-01-06T02:07:40.976Z,4.62
2023-01-06T02:10:17.477Z,5.68
2023-01-06T02:12:47.305Z,5.15
2023-01-06T02:15:19.184Z,5.50
2023-01-06T02:18:07.375Z,4.57
2023-01-06T02:20:34.170Z,4.95
2023-01-06T02:25:55.956Z,11.50
2023-01-06T02:28:53.752Z,6.32
2023-01-06T02:31:52.696Z,5.20
2023-01-06T02:34:31.897Z,4.50
2023-01-06T02:37:36.486Z,5.65
2023-01-06T02:40:17.696Z,4.20
2023-01-06T02:43:08.958Z,4.35
2023-01-06T02:45:35.790Z,8.73
2023-01-06T02:48:30.249Z,6.85
2023-01-06T02:51:04.712Z,5.68
2023-01-06T02:53:41.071Z,9.18
2023-01-06T02:56:08.547Z,4.90
2023-01-06T02:59:01.452Z,6.43
2023-01-06T03:01:35.688Z,7.12
2023-01-06T03:04:06.000Z,6.25
2023-01-06T03:06:33.423Z,5.30
2023-01-06T03:09:01.518Z,4.68
2023-01-06T03:11:29.655Z,6.18
2023-01-06T03:14:00.825Z,7.22
2023-01-06T03:16:27.799Z,5.30
2023-01-06T03:18:55.042Z,6.10
2023-01-06T03:21:25.547Z,3.42
2023-01-06T03:23:52.633Z,7.35
2023-01-06T03:26:19.683Z,5.50
2023-01-06T03:28:46.560Z,8.73
2023-01-06T03:31:43.800Z,7.43
2023-01-06T03:34:22.504Z,6.78
2023-01-06T03:36:55.398Z,4.75
2023-01-06T03:39:37.320Z,8.30
2023-01-06T03:42:40.560Z,8.20
2023-01-06T03:45:24.455Z,4.30
2023-01-06T03:47:56.972Z,5.70
2023-01-06T03:50:29.303Z,6.00
2023-01-06T03:53:04.033Z,6.68
2023-01-06T03:55:32.903Z,9.38
2023-01-06T03:58:01.231Z,5.75
2023-01-06T04:00:31.977Z,4.82
2023-01-06T04:03:01.024Z,7.65
2023-01-06T04:05:28.915Z,5.93
2023-01-06T04:07:55.823Z,5.37
2023-01-06T04:10:23.618Z,7.65
2023-01-06T04:12:50.883Z,8.00
2023-01-06T04:15:20.218Z,7.47
2023-01-06T04:17:48.027Z,7.85
2023-01-06T04:20:17.583Z,8.00
2023-01-06T04:22:44.451Z,6.65
2023-01-06T04:25:11.966Z,8.82
2023-01-06T04:27:38.892Z,7.28
2023-01-06T04:30:06.938Z,5.00
2023-01-06T04:32:33.943Z,5.40
2023-01-06T04:35:00.812Z,5.12
2023-01-06T04:37:27.701Z,11.00
2023-01-06T04:39:54.536Z,4.60
2023-01-06T04:42:21.449Z,8.38
2023-01-06T04:44:48.310Z,3.80
2023-01-06T04:47:15.260Z,6.72
2023-01-06T04:49:42.140Z,5.35
2023-01-06T04:52:09.129Z,7.25
2023-01-06T04:54:36.665Z,9.18
2023-01-06T04:57:03.717Z,14.20
2023-01-06T04:59:30.647Z,6.32
2023-01-06T05:01:57.589Z,9.15
2023-01-06T05:04:24.512Z,7.87
2023-01-06T05:06:51.542Z,5.95
2023-01-06T05:09:18.377Z,6.15
2023-01-06T05:11:45.291Z,8.52
2023-01-06T05:14:12.304Z,5.53
2023-01-06T05:16:40.006Z,10.90
2023-01-06T05:19:06.980Z,8.75
2023-01-06T05:21:33.848Z,7.85
2023-01-06T05:24:01.082Z,6.80
2023-01-06T05:26:28.409Z,6.50
2023-01-06T05:28:55.601Z,7.90
2023-01-06T05:31:22.907Z,8.10
2023-01-06T05:33:49.852Z,6.30
2023-01-06T05:36:18.091Z,9.85
2023-01-06T05:38:45.709Z,7.53
2023-01-06T05:41:12.726Z,10.63
2023-01-06T05:43:39.844Z,6.40
2023-01-06T05:46:08.742Z,7.05
2023-01-06T05:48:36.438Z,8.85
2023-01-06T05:51:10.943Z,7.68
2023-01-06T05:53:40.665Z,6.68
2023-01-06T05:56:09.441Z,10.48
2023-01-06T05:58:37.296Z,9.18
2023-01-06T06:01:04.987Z,5.00
2023-01-06T06:03:32.768Z,5.78
2023-01-06T06:06:06.910Z,5.70
2023-01-06T06:08:34.078Z,5.10
2023-01-06T06:11:05.695Z,4.95
2023-01-06T06:13:32.704Z,6.55
2023-01-06T06:16:13.922Z,8.13
2023-01-06T06:18:44.844Z,4.80
2023-01-06T06:21:16.401Z,9.77
2023-01-06T06:23:43.555Z,9.10
2023-01-06T06:26:11.692Z,9.40
2023-01-06T06:28:39.086Z,9.52
2023-01-06T06:31:08.262Z,7.37
2023-01-06T06:33:35.291Z,4.18
2023-01-06T06:36:02.732Z,6.25
2023-01-06T06:38:29.738Z,8.27
2023-01-06T06:40:56.638Z,9.02
2023-01-06T06:43:23.604Z,8.15
2023-01-06T06:45:50.559Z,7.32
2023-01-06T06:48:17.546Z,7.80
2023-01-06T06:50:44.408Z,7.68
2023-01-06T06:53:11.282Z,8.45
2023-01-06T06:55:38.181Z,8.15
2023-01-06T06:58:05.064Z,8.27
2023-01-06T07:00:31.940Z,7.95
2023-01-06T07:02:58.793Z,9.48
2023-01-06T07:05:25.896Z,7.05
2023-01-06T07:07:52.749Z,8.02
2023-01-06T07:10:19.668Z,8.80
2023-01-06T07:12:46.560Z,7.10
2023-01-06T07:15:13.425Z,8.38
2023-01-06T07:17:41.953Z,9.52
2023-01-06T07:20:11.484Z,12.52
2023-01-06T07:22:42.253Z,26.35
2023-01-06T07:25:09.882Z,20.37
2023-01-06T07:27:37.169Z,12.23
2023-01-06T07:30:05.406Z,17.50
2023-01-06T07:32:32.350Z,8.75
2023-01-06T07:34:59.259Z,8.05
2023-01-06T07:37:26.126Z,9.27
2023-01-06T07:39:52.967Z,10.73
2023-01-06T07:42:19.846Z,11.20
2023-01-06T07:44:46.679Z,9.65
2023-01-06T07:47:14.316Z,9.20
2023-01-06T07:49:41.326Z,9.10
2023-01-06T07:52:08.172Z,8.88
2023-01-06T07:54:35.075Z,11.35
2023-01-06T07:57:01.940Z,9.90
2023-01-06T07:59:28.783Z,10.15
2023-01-06T08:01:55.763Z,7.97
2023-01-06T08:04:22.721Z,6.87
2023-01-06T08:06:49.614Z,7.68
2023-01-06T08:09:16.455Z,6.10
2023-01-06T08:11:43.331Z,10.00
2023-01-06T08:14:11.762Z,10.43
2023-01-06T08:16:40.137Z,7.57
2023-01-06T08:19:07.239Z,6.05
2023-01-06T08:21:34.164Z,8.63
2023-01-06T08:24:01.037Z,6.00
2023-01-06T08:26:27.958Z,8.77
2023-01-06T08:28:55.317Z,7.35
2023-01-06T08:31:23.052Z,9.38
2023-01-06T08:33:51.930Z,6.35
2023-01-06T08:36:20.246Z,7.40
2023-01-06T08:38:47.710Z,5.70
2023-01-06T08:41:15.339Z,5.85
2023-01-06T08:43:45.569Z,9.70
2023-01-06T08:46:16.375Z,9.52
2023-01-06T08:48:43.924Z,7.70
2023-01-06T08:51:16.479Z,9.10
2023-01-06T08:53:44.200Z,7.12
2023-01-06T08:56:16.014Z,7.72
2023-01-06T08:58:42.973Z,7.30
2023-01-06T09:01:19.440Z,6.87
2023-01-06T09:03:46.436Z,6.75
2023-01-06T09:06:13.686Z,9.20
2023-01-06T09:08:40.568Z,6.62
2023-01-06T09:11:08.857Z,9.95
2023-01-06T09:13:36.565Z,10.93
2023-01-06T09:16:10.130Z,9.90
2023-01-06T09:18:37.752Z,8.48
2023-01-06T09:21:05.605Z,11.90
2023-01-06T09:23:33.213Z,7.72
2023-01-06T09:26:00.110Z,7.78
2023-01-06T09:28:27.007Z,13.43
2023-01-06T09:30:53.955Z,12.93
2023-01-06T09:33:21.276Z,8.77
2023-01-06T09:35:48.204Z,9.95
2023-01-06T09:38:15.423Z,12.07
2023-01-06T09:40:46.036Z,8.02
2023-01-06T09:43:23.534Z,6.75
2023-01-06T09:45:54.271Z,8.75
2023-01-06T09:48:26.527Z,7.60
2023-01-06T09:51:00.187Z,7.70
2023-01-06T09:53:35.385Z,9.68
2023-01-06T09:56:06.722Z,9.02
2023-01-06T09:58:55.715Z,16.00
2023-01-06T10:01:31.545Z,8.10
2023-01-06T10:03:59.384Z,6.30
2023-01-06T10:06:35.264Z,8.10
2023-01-06T10:09:12.628Z,9.43
2023-01-06T10:11:58.677Z,8.07
2023-01-06T10:14:59.010Z,11.52
2023-01-06T10:17:34.945Z,11.48
2023-01-06T10:20:30.888Z,10.38
2023-01-06T10:23:31.114Z,9.75
2023-01-06T10:26:10.797Z,5.35
2023-01-06T10:28:53.260Z,12.07
2023-01-06T10:31:29.012Z,10.75
2023-01-06T10:33:57.230Z,10.02
2023-01-06T10:36:45.073Z,12.23
2023-01-06T10:42:20.705Z,10.13
2023-01-06T10:44:49.430Z,9.27
2023-01-06T10:47:23.475Z,8.35
2023-01-06T10:49:50.513Z,6.97
2023-01-06T10:52:19.901Z,8.27
2023-01-06T10:54:47.165Z,5.43
2023-01-06T10:57:21.163Z,5.32
2023-01-06T11:00:07.610Z,7.10
2023-01-06T11:02:34.611Z,9.48
2023-01-06T11:05:02.237Z,7.87
2023-01-06T11:07:30.021Z,6.43
2023-01-06T11:09:57.646Z,9.07
2023-01-06T11:12:27.361Z,5.35
2023-01-06T11:15:09.467Z,8.90
2023-01-06T11:17:36.543Z,11.05
2023-01-06T11:20:09.891Z,7.30
2023-01-06T11:22:44.261Z,7.78
2023-01-06T11:25:20.149Z,6.82
2023-01-06T11:28:07.184Z,8.90
2023-01-06T11:30:39.245Z,5.50
2023-01-06T11:33:15.067Z,8.10
2023-01-06T11:35:42.207Z,5.78
2023-01-06T11:38:13.691Z,6.55
2023-01-06T11:40:40.794Z,5.18
2023-01-06T11:43:15.107Z,6.22
2023-01-06T11:45:49.355Z,9.23
2023-01-06T11:48:28.751Z,7.75
2023-01-06T11:51:11.069Z,11.50
2023-01-06T11:53:39.342Z,7.50
2023-01-06T11:56:19.815Z,7.78
2023-01-06T11:59:10.177Z,6.55
2023-01-06T12:04:41.544Z,5.82
2023-01-06T12:07:21.478Z,8.02
2023-01-06T12:09:58.611Z,7.72
2023-01-06T12:12:27.827Z,6.95
2023-01-06T12:14:55.159Z,9.52
2023-01-06T12:17:55.835Z,7.82
2023-01-06T12:20:47.761Z,8.10
2023-01-06T12:23:24.155Z,7.32
2023-01-06T12:25:53.569Z,7.75
2023-01-06T12:28:28.369Z,6.85
2023-01-06T12:31:03.815Z,7.07
2023-01-06T12:33:40.677Z,4.22
2023-01-06T12:36:33.883Z,4.50
2023-01-06T12:39:12.713Z,6.12
2023-01-06T12:42:29.037Z,6.47
2023-01-06T12:45:01.669Z,7.87
2023-01-06T12:47:40.521Z,6.07
2023-01-06T12:50:20.709Z,6.47
2023-01-06T12:52:48.698Z,5.72
2023-01-06T12:55:53.672Z,6.35
2023-01-06T12:58:48.790Z,6.00
2023-01-06T13:01:17.678Z,6.05
2023-01-06T13:04:07.981Z,5.93
2023-01-06T13:06:57.165Z,5.50
2023-01-06T13:15:28.237Z,9.90
2023-01-06T13:26:49.890Z,5.57
2023-01-06T13:29:30.553Z,11.52
2023-01-06T13:43:50.534Z,8.00
2023-01-06T13:49:04.875Z,9.80
2023-01-06T13:51:35.178Z,8.15
2023-01-06T13:54:03.245Z,7.10
2023-01-06T13:56:36.178Z,9.63
2023-01-06T14:06:49.576Z,11.02
2023-01-06T14:09:18.545Z,8.52
2023-01-06T14:11:45.942Z,9.65
2023-01-06T14:14:28.603Z,9.20
2023-01-06T14:17:12.437Z,9.07
2023-01-06T14:22:41.714Z,10.65
2023-01-06T14:27:46.669Z,7.90
2023-01-06T14:30:37.680Z,10.25
2023-01-06T14:33:07.846Z,9.88
2023-01-06T14:35:43.983Z,11.43
2023-01-06T14:38:20.423Z,7.75
2023-01-06T14:41:05.486Z,7.67
2023-01-06T14:43:44.067Z,12.68
2023-01-06T14:46:24.529Z,11.68
2023-01-06T14:48:55.683Z,14.77
2023-01-06T14:51:22.887Z,8.98
2023-01-06T14:53:55.327Z,8.95
2023-01-06T14:56:23.896Z,11.40
2023-01-06T14:58:50.748Z,9.85
2023-01-06T15:01:25.906Z,11.00
2023-01-06T15:03:55.716Z,10.73
2023-01-06T15:06:24.746Z,9.75
2023-01-06T15:08:51.838Z,14.55
2023-01-06T15:11:30.142Z,13.32
2023-01-06T15:13:57.144Z,10.07
2023-01-06T15:16:36.901Z,12.27
2023-01-06T15:19:07.765Z,10.15
2023-01-06T15:21:42.285Z,14.23
2023-01-06T15:24:42.129Z,10.32
2023-01-06T15:27:13.228Z,11.57
2023-01-06T15:29:50.001Z,14.15
2023-01-06T15:32:17.223Z,12.95
2023-01-06T15:34:47.568Z,11.20
2023-01-06T15:37:23.922Z,13.57
2023-01-06T15:39:52.566Z,16.42
2023-01-06T15:42:24.069Z,13.98
2023-01-06T15:45:24.326Z,15.18
2023-01-06T15:47:51.319Z,13.40
2023-01-06T15:50:20.740Z,12.98
2023-01-06T15:52:50.665Z,14.15
2023-01-06T15:55:25.194Z,11.07
2023-01-06T15:57:55.506Z,14.68
2023-01-06T16:00:29.248Z,12.37
2023-01-06T16:02:56.263Z,12.10
2023-01-06T16:05:37.371Z,11.80
2023-01-06T16:08:16.429Z,14.23
2023-01-06T16:10:46.307Z,13.27
2023-01-06T16:13:19.441Z,12.82
2023-01-06T16:15:52.205Z,14.40
2023-01-06T16:18:27.434Z,14.23
2023-01-06T16:20:54.698Z,11.98
2023-01-06T16:23:40.024Z,12.73
2023-01-06T16:26:19.146Z,13.30
2023-01-06T16:28:57.397Z,12.43
2023-01-06T16:31:36.519Z,14.45
2023-01-06T16:34:22.013Z,14.60
2023-01-06T16:36:49.974Z,13.15
2023-01-06T16:39:16.958Z,15.43
2023-01-06T16:41:58.964Z,15.85
2023-01-06T16:44:26.925Z,14.43
2023-01-06T16:46:53.828Z,17.25
2023-01-06T16:49:21.961Z,20.62
2023-01-06T16:51:49.185Z,19.90
2023-01-06T16:54:19.921Z,17.17
2023-01-06T16:56:47.219Z,20.58
2023-01-06T16:59:15.849Z,18.25
2023-01-06T17:01:44.200Z,22.08
2023-01-06T17:04:12.745Z,20.08
2023-01-06T17:06:40.956Z,18.83
2023-01-06T17:09:19.880Z,17.98
2023-01-06T17:11:48.255Z,18.92
2023-01-06T17:14:17.131Z,16.80
2023-01-06T17:16:44.330Z,18.02
2023-01-06T17:19:26.841Z,17.10
2023-01-06T17:22:22.888Z,19.95
2023-01-06T17:24:50.416Z,16.92
2023-01-06T17:27:26.698Z,23.62
2023-01-06T17:29:54.631Z,17.85
2023-01-06T17:32:23.690Z,21.37
2023-01-06T17:34:50.621Z,22.70
2023-01-06T17:37:25.500Z,23.15
2023-01-06T17:39:53.039Z,27.17
2023-01-06T17:42:26.449Z,24.27
2023-01-06T17:44:57.660Z,24.83
2023-01-06T17:47:24.461Z,28.73
2023-01-06T17:52:24.836Z,30.75
2023-01-06T17:55:15.946Z,23.87
2023-01-06T17:57:46.238Z,23.05
2023-01-06T18:00:34.933Z,23.85
2023-01-06T18:05:35.572Z,21.33
2023-01-06T18:08:05.352Z,22.60
2023-01-06T18:10:40.100Z,21.33
2023-01-06T18:13:16.450Z,24.55
2023-01-06T18:15:48.206Z,23.30
2023-01-06T18:18:25.246Z,24.35
2023-01-06T18:21:01.279Z,20.80
2023-01-06T18:23:28.548Z,21.30
2023-01-06T18:25:57.423Z,20.60
2023-01-06T18:28:24.399Z,22.62
2023-01-06T18:30:59.240Z,21.15
2023-01-06T18:33:26.356Z,21.27
2023-01-06T18:35:57.653Z,22.60
2023-01-06T18:38:30.382Z,21.12
2023-01-06T18:40:57.249Z,20.12
2023-01-06T18:43:29.925Z,21.55
2023-01-06T18:46:01.976Z,19.05
2023-01-06T18:48:35.072Z,18.23
2023-01-06T18:51:03.097Z,18.35
2023-01-06T18:53:31.906Z,20.00
2023-01-06T18:56:02.292Z,19.27
2023-01-06T18:58:37.326Z,17.67
2023-01-06T19:01:19.801Z,18.67
2023-01-06T19:04:01.986Z,19.10
2023-01-06T19:06:40.411Z,18.58
2023-01-06T19:09:17.753Z,18.45
2023-01-06T19:14:17.658Z,20.15
2023-01-06T19:16:57.342Z,18.87
2023-01-06T19:19:27.560Z,18.25
2023-01-06T19:22:02.507Z,21.65
2023-01-06T19:24:29.515Z,23.10
2023-01-06T19:26:58.343Z,18.95
2023-01-06T19:29:32.462Z,19.40
2023-01-06T19:32:00.951Z,20.30
2023-01-06T19:34:29.433Z,21.02
2023-01-06T19:36:58.358Z,19.58
2023-01-06T19:39:37.477Z,20.33
2023-01-06T19:42:27.454Z,19.58
2023-01-06T19:44:58.043Z,17.70
2023-01-06T19:47:27.944Z,21.58
2023-01-06T19:50:00.103Z,20.23
2023-01-06T19:52:35.707Z,21.62
2023-01-06T19:55:14.530Z,18.83
2023-01-06T19:57:44.420Z,22.00
2023-01-06T20:00:47.284Z,20.70
2023-01-06T20:03:29.957Z,23.05
2023-01-06T20:05:56.923Z,19.27
2023-01-06T20:08:23.864Z,20.17
2023-01-06T20:10:50.800Z,22.67
2023-01-06T20:13:17.630Z,20.80
2023-01-06T20:18:11.159Z,21.08
2023-01-06T20:20:38.057Z,21.35
2023-01-06T20:23:05.009Z,20.33
2023-01-06T20:25:31.904Z,20.48
2023-01-06T20:27:58.791Z,22.40
2023-01-06T20:30:26.511Z,20.05
2023-01-06T20:32:53.537Z,19.90
2023-01-06T20:35:20.454Z,22.75
2023-01-06T20:37:47.290Z,20.35
2023-01-06T20:42:40.924Z,19.35
2023-01-06T20:45:08.243Z,21.73
2023-01-06T20:47:35.073Z,23.23
2023-01-06T20:52:28.630Z,20.23
2023-01-06T20:54:55.465Z,19.52
2023-01-06T20:59:48.976Z,20.77
2023-01-06T21:02:16.015Z,18.08
2023-01-06T21:04:42.982Z,21.08
2023-01-06T21:09:36.469Z,20.30
2023-01-06T21:12:03.365Z,18.90
2023-01-06T21:14:31.043Z,19.75
2023-01-06T21:16:58.013Z,19.00
2023-01-06T21:19:24.905Z,21.10
2023-01-06T21:21:51.785Z,20.25
2023-01-06T21:24:18.627Z,18.05
2023-01-06T21:26:45.525Z,19.50
2023-01-06T21:29:12.517Z,17.85
2023-01-06T21:31:40.575Z,18.98
2023-01-06T21:34:07.644Z,20.02
2023-01-06T21:36:34.541Z,17.90
2023-01-06T21:39:01.461Z,19.33
2023-01-06T21:41:46.852Z,19.85
2023-01-06T21:44:13.688Z,16.25
2023-01-06T21:46:40.667Z,19.27
2023-01-06T21:49:07.669Z,17.98
2023-01-06T21:51:35.357Z,17.95
2023-01-06T21:54:03.117Z,18.90
2023-01-06T21:56:30.034Z,18.37
2023-01-06T21:58:57.204Z,21.90
2023-01-06T22:01:24.471Z,17.52
2023-01-06T22:03:51.428Z,21.35
2023-01-06T22:06:19.634Z,20.05
2023-01-06T22:08:50.446Z,26.87
2023-01-06T22:11:17.811Z,20.35
2023-01-06T22:13:44.853Z,19.27
2023-01-06T22:16:11.825Z,20.05
2023-01-06T22:18:38.697Z,17.15
2023-01-06T22:21:05.818Z,20.10
2023-01-06T22:23:33.395Z,23.15
2023-01-06T22:26:00.222Z,20.80
2023-01-06T22:28:28.084Z,21.33
2023-01-06T22:30:55.678Z,18.48
2023-01-06T22:33:22.556Z,21.65
2023-01-06T22:35:49.524Z,20.08
2023-01-06T22:38:16.436Z,20.52
2023-01-06T22:40:43.283Z,20.00
2023-01-06T22:43:10.163Z,19.80
2023-01-06T22:45:37.121Z,18.60
2023-01-06T22:48:04.052Z,20.65
2023-01-06T22:50:31.084Z,19.45
2023-01-06T22:52:57.975Z,20.55
2023-01-06T22:55:24.886Z,20.92
2023-01-06T22:57:51.807Z,22.00
2023-01-06T23:00:19.249Z,21.25
2023-01-06T23:02:46.393Z,21.92
2023-01-06T23:05:13.469Z,20.95
2023-01-06T23:07:41.794Z,23.10
2023-01-06T23:10:10.483Z,22.15
2023-01-06T23:12:39.280Z,22.70
2023-01-06T23:15:07.056Z,18.23
2023-01-06T23:17:34.027Z,17.60
2023-01-06T23:20:00.888Z,18.73
2023-01-06T23:22:27.797Z,19.67
2023-01-06T23:24:54.713Z,22.20
2023-01-06T23:27:21.570Z,21.02
2023-01-06T23:29:48.415Z,22.25
2023-01-06T23:32:15.300Z,23.75
2023-01-06T23:34:42.125Z,20.60
2023-01-06T23:39:35.627Z,19.17
2023-01-06T23:42:04.440Z,22.35
2023-01-06T23:44:31.346Z,21.65
2023-01-06T23:46:58.223Z,19.17
2023-01-06T23:49:25.102Z,19.08
2023-01-06T23:51:51.989Z,20.65
2023-01-06T23:54:18.865Z,23.52
2023-01-06T23:56:45.741Z,21.15
2023-01-06T23:59:13.004Z,21.00
